createdAt,value
2022-07-29T00:02:43.563Z,59
2022-07-29T00:12:43.926Z,59
2022-07-29T00:22:45.108Z,59
2022-07-29T00:32:45.021Z,59
2022-07-29T00:42:45.428Z,59
2022-07-29T00:52:46.040Z,60
2022-07-29T01:02:46.408Z,60
2022-07-29T01:12:46.533Z,61
2022-07-29T01:22:47.455Z,61
2022-07-29T01:32:47.731Z,61
2022-07-29T01:42:48.278Z,62
2022-07-29T01:52:48.698Z,62
2022-07-29T02:02:49.331Z,62
2022-07-29T02:12:50.820Z,62
2022-07-29T02:22:49.568Z,62
2022-07-29T02:32:50.310Z,63
2022-07-29T02:42:50.810Z,63
2022-07-29T02:52:51.561Z,65
2022-07-29T03:02:52.617Z,66
2022-07-29T03:12:52.769Z,66
2022-07-29T03:22:53.820Z,66
2022-07-29T03:32:54.586Z,67
2022-07-29T03:42:55.028Z,68
2022-07-29T03:52:55.536Z,69
2022-07-29T04:02:55.904Z,68
2022-07-29T04:12:56.757Z,69
2022-07-29T04:22:57.123Z,68
2022-07-29T04:32:57.211Z,67
2022-07-29T04:42:57.757Z,67
2022-07-29T04:52:58.755Z,68
2022-07-29T05:02:59.380Z,75
2022-07-29T05:13:00.305Z,86
2022-07-29T05:23:01.036Z,88
2022-07-29T05:33:01.580Z,88
2022-07-29T05:43:02.626Z,89
2022-07-29T05:53:18.818Z,91
2022-07-29T06:03:03.916Z,90
2022-07-29T06:13:04.119Z,90
2022-07-29T06:23:04.940Z,89
2022-07-29T06:33:05.025Z,90
2022-07-29T06:43:05.392Z,87
2022-07-29T06:53:05.646Z,84
2022-07-29T07:03:06.010Z,84
2022-07-29T07:13:06.248Z,84
2022-07-29T07:33:07.179Z,80
2022-07-29T08:03:09.813Z,74
2022-07-29T08:13:09.921Z,76
2022-07-29T08:23:10.426Z,74
2022-07-29T08:33:10.635Z,75
2022-07-29T08:53:11.759Z,75
2022-07-29T09:03:12.707Z,76
2022-07-29T09:13:13.206Z,74
2022-07-29T10:23:17.993Z,81
2022-07-29T11:23:20.256Z,75
2022-07-29T11:43:21.279Z,79
2022-07-29T12:03:22.818Z,88
2022-07-29T12:23:24.460Z,84
2022-07-29T12:43:26.371Z,82
2022-07-29T13:03:26.961Z,79
2022-07-29T13:13:28.000Z,73
2022-07-29T13:43:28.327Z,68
2022-07-29T14:03:29.070Z,66
2022-07-29T14:13:29.168Z,65
2022-07-29T14:23:29.723Z,65
2022-07-29T14:43:31.316Z,61
2022-07-29T14:53:31.753Z,60
2022-07-29T15:03:31.902Z,60
2022-07-29T15:13:32.484Z,62
2022-07-29T15:23:32.942Z,60
2022-07-29T15:33:33.287Z,56
2022-07-29T15:43:33.764Z,57
2022-07-29T15:53:35.262Z,57
2022-07-29T16:03:34.516Z,56
2022-07-29T16:13:35.181Z,56
2022-07-29T16:23:35.909Z,55
2022-07-29T16:43:37.333Z,54
2022-07-29T17:03:37.763Z,55
2022-07-29T17:23:38.479Z,57
2022-07-29T17:43:39.260Z,59
2022-07-29T17:53:40.055Z,59
2022-07-29T18:13:41.025Z,59
2022-07-29T18:23:41.973Z,59
2022-07-29T18:33:42.772Z,60
2022-07-29T18:43:43.755Z,60
2022-07-29T18:53:43.899Z,61
2022-07-29T19:03:44.518Z,62
2022-07-29T19:13:45.090Z,62
2022-07-29T19:24:00.619Z,63
2022-07-29T19:43:50.033Z,70
2022-07-29T20:03:48.227Z,73
2022-07-29T20:23:50.277Z,75
2022-07-29T20:43:51.172Z,78
2022-07-29T20:53:51.400Z,78
2022-07-29T21:03:52.358Z,79
2022-07-29T21:13:52.667Z,80
2022-07-29T21:23:53.482Z,81
2022-07-29T21:33:54.501Z,82
2022-07-29T21:43:55.728Z,83
2022-07-29T21:53:56.027Z,83
2022-07-29T22:03:57.046Z,84
2022-07-29T22:13:57.363Z,84
2022-07-29T22:23:57.846Z,84
2022-07-29T22:33:58.849Z,84
2022-07-29T22:43:59.371Z,84
2022-07-29T22:54:00.210Z,84
2022-07-29T23:04:00.597Z,84
2022-07-29T23:14:00.849Z,84
2022-07-29T23:24:01.793Z,84
2022-07-29T23:34:02.243Z,84
2022-07-29T23:44:09.643Z,84
2022-07-29T23:54:10.070Z,85
